sensor_id;sensor_type;location;lat;lon;timestamp;P1;durP1;ratioP1;P2;durP2;ratioP2
70744;SDS011;59284;31.390;34.904;2022-12-20T05:40:55;10.45;;;4.40;;
70744;SDS011;59284;31.390;34.904;2022-12-20T05:43:21;11.02;;;5.10;;
70744;SDS011;59284;31.390;34.904;2022-12-20T05:45:51;20.10;;;5.40;;
70744;SDS011;59284;31.390;34.904;2022-12-20T05:51:15;14.23;;;4.95;;
70744;SDS011;59284;31.390;34.904;2022-12-20T05:53:41;15.17;;;5.23;;
70744;SDS011;59284;31.390;34.904;2022-12-20T05:56:06;13.63;;;5.65;;
70744;SDS011;59284;31.390;34.904;2022-12-20T05:58:32;13.43;;;5.03;;
70744;SDS011;59284;31.390;34.904;2022-12-20T06:01:01;12.93;;;5.57;;
70744;SDS011;59284;31.390;34.904;2022-12-20T06:03:29;11.23;;;4.85;;
70744;SDS011;59284;31.390;34.904;2022-12-20T06:05:56;15.85;;;5.63;;
70744;SDS011;59284;31.390;34.904;2022-12-20T06:08:22;12.40;;;5.55;;
70744;SDS011;59284;31.390;34.904;2022-12-20T06:10:49;14.00;;;5.70;;
70744;SDS011;59284;31.390;34.904;2022-12-20T06:13:15;14.23;;;5.30;;
70744;SDS011;59284;31.390;34.904;2022-12-20T06:15:41;15.73;;;5.40;;
70744;SDS011;59284;31.390;34.904;2022-12-20T06:18:06;16.30;;;5.40;;
70744;SDS011;59284;31.390;34.904;2022-12-20T06:20:33;14.63;;;5.63;;
70744;SDS011;59284;31.390;34.904;2022-12-20T06:23:00;13.32;;;5.43;;
70744;SDS011;59284;31.390;34.904;2022-12-20T06:25:26;11.73;;;5.93;;
70744;SDS011;59284;31.390;34.904;2022-12-20T06:27:52;11.40;;;4.97;;
70744;SDS011;59284;31.390;34.904;2022-12-20T06:30:19;10.70;;;5.20;;
70744;SDS011;59284;31.390;34.904;2022-12-20T06:32:45;13.20;;;5.32;;
70744;SDS011;59284;31.390;34.904;2022-12-20T06:35:11;13.02;;;5.30;;
70744;SDS011;59284;31.390;34.904;2022-12-20T06:37:39;12.00;;;5.50;;
70744;SDS011;59284;31.390;34.904;2022-12-20T06:40:09;10.50;;;3.53;;
70744;SDS011;59284;31.390;34.904;2022-12-20T06:42:36;10.95;;;4.63;;
70744;SDS011;59284;31.390;34.904;2022-12-20T06:45:03;13.30;;;4.65;;
70744;SDS011;59284;31.390;34.904;2022-12-20T06:47:29;12.82;;;4.80;;
70744;SDS011;59284;31.390;34.904;2022-12-20T06:49:55;13.93;;;5.93;;
70744;SDS011;59284;31.390;34.904;2022-12-20T06:52:20;13.82;;;4.80;;
70744;SDS011;59284;31.390;34.904;2022-12-20T06:54:46;16.47;;;5.23;;
70744;SDS011;59284;31.390;34.904;2022-12-20T06:57:12;15.35;;;5.53;;
70744;SDS011;59284;31.390;34.904;2022-12-20T06:59:37;12.57;;;5.50;;
70744;SDS011;59284;31.390;34.904;2022-12-20T07:02:03;9.93;;;4.68;;
70744;SDS011;59284;31.390;34.904;2022-12-20T07:04:29;13.70;;;5.00;;
70744;SDS011;59284;31.390;34.904;2022-12-20T07:06:54;17.30;;;5.70;;
70744;SDS011;59284;31.390;34.904;2022-12-20T07:09:21;16.88;;;6.45;;
70744;SDS011;59284;31.390;34.904;2022-12-20T07:11:47;19.48;;;7.38;;
70744;SDS011;59284;31.390;34.904;2022-12-20T07:14:13;16.77;;;6.40;;
70744;SDS011;59284;31.390;34.904;2022-12-20T07:16:38;13.97;;;6.70;;
70744;SDS011;59284;31.390;34.904;2022-12-20T07:19:09;16.77;;;6.18;;
70744;SDS011;59284;31.390;34.904;2022-12-20T07:21:36;20.70;;;6.82;;
70744;SDS011;59284;31.390;34.904;2022-12-20T07:24:01;18.87;;;6.73;;
70744;SDS011;59284;31.390;34.904;2022-12-20T07:26:27;15.15;;;6.82;;
70744;SDS011;59284;31.390;34.904;2022-12-20T07:28:53;16.87;;;6.80;;
70744;SDS011;59284;31.390;34.904;2022-12-20T07:31:19;24.52;;;7.53;;
70744;SDS011;59284;31.390;34.904;2022-12-20T07:33:44;20.30;;;6.20;;
70744;SDS011;59284;31.390;34.904;2022-12-20T07:36:10;14.52;;;6.15;;
70744;SDS011;59284;31.390;34.904;2022-12-20T07:38:37;14.30;;;5.75;;
70744;SDS011;59284;31.390;34.904;2022-12-20T07:41:09;16.67;;;6.40;;
70744;SDS011;59284;31.390;34.904;2022-12-20T07:43:36;19.63;;;7.07;;
70744;SDS011;59284;31.390;34.904;2022-12-20T07:46:02;18.57;;;6.47;;
70744;SDS011;59284;31.390;34.904;2022-12-20T07:48:29;14.50;;;6.38;;
70744;SDS011;59284;31.390;34.904;2022-12-20T07:51:00;22.35;;;7.07;;
70744;SDS011;59284;31.390;34.904;2022-12-20T07:53:31;22.43;;;7.47;;
70744;SDS011;59284;31.390;34.904;2022-12-20T07:56:01;19.05;;;6.47;;
70744;SDS011;59284;31.390;34.904;2022-12-20T07:58:29;15.48;;;6.65;;
70744;SDS011;59284;31.390;34.904;2022-12-20T08:00:56;17.35;;;6.93;;
70744;SDS011;59284;31.390;34.904;2022-12-20T08:03:23;14.93;;;6.37;;
70744;SDS011;59284;31.390;34.904;2022-12-20T08:05:53;14.48;;;6.18;;
70744;SDS011;59284;31.390;34.904;2022-12-20T08:08:22;14.23;;;6.10;;
70744;SDS011;59284;31.390;34.904;2022-12-20T08:10:48;16.73;;;6.20;;
70744;SDS011;59284;31.390;34.904;2022-12-20T08:13:15;12.40;;;6.25;;
70744;SDS011;59284;31.390;34.904;2022-12-20T08:15:42;14.03;;;7.13;;
70744;SDS011;59284;31.390;34.904;2022-12-20T08:18:08;18.05;;;8.00;;
70744;SDS011;59284;31.390;34.904;2022-12-20T08:20:34;13.30;;;6.72;;
70744;SDS011;59284;31.390;34.904;2022-12-20T08:23:01;17.03;;;7.40;;
70744;SDS011;59284;31.390;34.904;2022-12-20T08:25:28;17.70;;;8.57;;
70744;SDS011;59284;31.390;34.904;2022-12-20T08:27:54;17.38;;;7.68;;
70744;SDS011;59284;31.390;34.904;2022-12-20T08:30:20;11.53;;;6.90;;
70744;SDS011;59284;31.390;34.904;2022-12-20T08:32:46;20.77;;;9.65;;
70744;SDS011;59284;31.390;34.904;2022-12-20T08:35:12;23.25;;;8.90;;
70744;SDS011;59284;31.390;34.904;2022-12-20T08:37:37;22.87;;;8.30;;
70744;SDS011;59284;31.390;34.904;2022-12-20T08:40:05;16.13;;;8.20;;
70744;SDS011;59284;31.390;34.904;2022-12-20T08:42:31;18.40;;;8.00;;
70744;SDS011;59284;31.390;34.904;2022-12-20T08:44:57;20.37;;;9.23;;
70744;SDS011;59284;31.390;34.904;2022-12-20T08:47:23;18.85;;;8.93;;
70744;SDS011;59284;31.390;34.904;2022-12-20T08:49:48;22.43;;;10.10;;
70744;SDS011;59284;31.390;34.904;2022-12-20T08:52:14;21.50;;;9.32;;
70744;SDS011;59284;31.390;34.904;2022-12-20T08:54:39;22.07;;;10.10;;
70744;SDS011;59284;31.390;34.904;2022-12-20T08:57:05;16.63;;;8.23;;
70744;SDS011;59284;31.390;34.904;2022-12-20T08:59:31;22.30;;;9.60;;
70744;SDS011;59284;31.390;34.904;2022-12-20T09:01:56;14.43;;;8.43;;
70744;SDS011;59284;31.390;34.904;2022-12-20T09:04:22;16.08;;;8.57;;
70744;SDS011;59284;31.390;34.904;2022-12-20T09:06:48;13.07;;;7.80;;
70744;SDS011;59284;31.390;34.904;2022-12-20T09:09:13;15.25;;;7.78;;
70744;SDS011;59284;31.390;34.904;2022-12-20T09:11:40;14.00;;;6.63;;
70744;SDS011;59284;31.390;34.904;2022-12-20T09:14:06;13.32;;;7.07;;
70744;SDS011;59284;31.390;34.904;2022-12-20T09:16:33;14.23;;;6.95;;
70744;SDS011;59284;31.390;34.904;2022-12-20T09:19:00;12.43;;;6.35;;
70744;SDS011;59284;31.390;34.904;2022-12-20T09:21:27;13.35;;;6.55;;
70744;SDS011;59284;31.390;34.904;2022-12-20T09:23:53;15.77;;;8.63;;
70744;SDS011;59284;31.390;34.904;2022-12-20T09:26:20;14.50;;;7.88;;
70744;SDS011;59284;31.390;34.904;2022-12-20T09:28:47;14.70;;;7.65;;
70744;SDS011;59284;31.390;34.904;2022-12-20T09:31:17;16.83;;;8.03;;
70744;SDS011;59284;31.390;34.904;2022-12-20T09:33:45;15.32;;;7.40;;
70744;SDS011;59284;31.390;34.904;2022-12-20T09:36:12;16.67;;;8.10;;
70744;SDS011;59284;31.390;34.904;2022-12-20T09:38:38;20.25;;;8.10;;
70744;SDS011;59284;31.390;34.904;2022-12-20T09:41:05;19.90;;;8.53;;
70744;SDS011;59284;31.390;34.904;2022-12-20T09:43:32;20.38;;;7.78;;
70744;SDS011;59284;31.390;34.904;2022-12-20T09:45:59;15.57;;;8.05;;
70744;SDS011;59284;31.390;34.904;2022-12-20T09:48:33;17.42;;;8.45;;
70744;SDS011;59284;31.390;34.904;2022-12-20T09:56:44;18.90;;;8.15;;
70744;SDS011;59284;31.390;34.904;2022-12-20T09:59:18;14.05;;;7.07;;
70744;SDS011;59284;31.390;34.904;2022-12-20T10:01:45;13.57;;;6.85;;
70744;SDS011;59284;31.390;34.904;2022-12-20T10:04:25;10.82;;;7.05;;
70744;SDS011;59284;31.390;34.904;2022-12-20T10:07:03;15.30;;;7.27;;
70744;SDS011;59284;31.390;34.904;2022-12-20T10:21:54;12.80;;;7.73;;
70744;SDS011;59284;31.390;34.904;2022-12-20T10:24:26;16.65;;;8.13;;
70744;SDS011;59284;31.390;34.904;2022-12-20T10:26:55;16.58;;;8.30;;
70744;SDS011;59284;31.390;34.904;2022-12-20T10:29:26;17.17;;;8.10;;
70744;SDS011;59284;31.390;34.904;2022-12-20T10:31:53;15.82;;;7.40;;
70744;SDS011;59284;31.390;34.904;2022-12-20T10:34:25;16.40;;;7.23;;
70744;SDS011;59284;31.390;34.904;2022-12-20T10:37:09;17.52;;;6.55;;
70744;SDS011;59284;31.390;34.904;2022-12-20T10:39:40;10.63;;;6.03;;
70744;SDS011;59284;31.390;34.904;2022-12-20T10:45:03;17.50;;;7.73;;
70744;SDS011;59284;31.390;34.904;2022-12-20T10:47:50;13.95;;;8.00;;
70744;SDS011;59284;31.390;34.904;2022-12-20T10:50:20;17.27;;;8.80;;
70744;SDS011;59284;31.390;34.904;2022-12-20T10:53:32;14.45;;;7.30;;
70744;SDS011;59284;31.390;34.904;2022-12-20T10:55:34;18.07;;;7.53;;
70744;SDS011;59284;31.390;34.904;2022-12-20T10:58:05;18.63;;;8.75;;
70744;SDS011;59284;31.390;34.904;2022-12-20T11:00:36;15.23;;;7.05;;
70744;SDS011;59284;31.390;34.904;2022-12-20T11:03:13;13.40;;;6.90;;
70744;SDS011;59284;31.390;34.904;2022-12-20T11:05:53;11.00;;;6.65;;
70744;SDS011;59284;31.390;34.904;2022-12-20T11:08:21;15.40;;;8.00;;
70744;SDS011;59284;31.390;34.904;2022-12-20T11:10:48;15.10;;;7.57;;
70744;SDS011;59284;31.390;34.904;2022-12-20T11:13:19;11.02;;;6.05;;
70744;SDS011;59284;31.390;34.904;2022-12-20T11:15:54;11.60;;;6.72;;
70744;SDS011;59284;31.390;34.904;2022-12-20T11:21:26;15.20;;;7.13;;
70744;SDS011;59284;31.390;34.904;2022-12-20T11:31:57;11.80;;;6.63;;
70744;SDS011;59284;31.390;34.904;2022-12-20T11:40:50;14.77;;;6.90;;
70744;SDS011;59284;31.390;34.904;2022-12-20T11:52:59;12.57;;;6.70;;
70744;SDS011;59284;31.390;34.904;2022-12-20T11:55:38;16.48;;;6.47;;
70744;SDS011;59284;31.390;34.904;2022-12-20T12:00:40;11.07;;;6.20;;
70744;SDS011;59284;31.390;34.904;2022-12-20T12:06:15;13.40;;;7.10;;
70744;SDS011;59284;31.390;34.904;2022-12-20T12:08:52;14.57;;;7.28;;
70744;SDS011;59284;31.390;34.904;2022-12-20T12:11:23;13.10;;;7.30;;
70744;SDS011;59284;31.390;34.904;2022-12-20T12:13:53;20.20;;;8.23;;
70744;SDS011;59284;31.390;34.904;2022-12-20T12:16:23;14.57;;;7.60;;
70744;SDS011;59284;31.390;34.904;2022-12-20T12:18:52;13.95;;;6.97;;
70744;SDS011;59284;31.390;34.904;2022-12-20T12:28:46;17.87;;;7.63;;
70744;SDS011;59284;31.390;34.904;2022-12-20T12:46:11;13.77;;;6.53;;
70744;SDS011;59284;31.390;34.904;2022-12-20T12:51:25;14.85;;;7.18;;
70744;SDS011;59284;31.390;34.904;2022-12-20T12:57:11;16.63;;;7.77;;
70744;SDS011;59284;31.390;34.904;2022-12-20T12:59:43;15.75;;;8.07;;
70744;SDS011;59284;31.390;34.904;2022-12-20T13:02:32;16.75;;;8.60;;
70744;SDS011;59284;31.390;34.904;2022-12-20T13:21:15;15.38;;;8.13;;
70744;SDS011;59284;31.390;34.904;2022-12-20T13:29:59;13.88;;;6.93;;
70744;SDS011;59284;31.390;34.904;2022-12-20T13:37:52;12.33;;;6.97;;
70744;SDS011;59284;31.390;34.904;2022-12-20T13:40:31;19.05;;;8.02;;
70744;SDS011;59284;31.390;34.904;2022-12-20T13:43:44;14.52;;;7.75;;
70744;SDS011;59284;31.390;34.904;2022-12-20T13:51:15;16.20;;;7.47;;
70744;SDS011;59284;31.390;34.904;2022-12-20T13:53:59;18.05;;;7.53;;
70744;SDS011;59284;31.390;34.904;2022-12-20T13:59:26;14.55;;;6.85;;
70744;SDS011;59284;31.390;34.904;2022-12-20T14:01:59;14.55;;;7.22;;
70744;SDS011;59284;31.390;34.904;2022-12-20T14:04:40;17.27;;;7.20;;
70744;SDS011;59284;31.390;34.904;2022-12-20T14:07:11;13.82;;;7.90;;
70744;SDS011;59284;31.390;34.904;2022-12-20T14:09:45;21.23;;;8.45;;
70744;SDS011;59284;31.390;34.904;2022-12-20T14:12:18;15.48;;;7.10;;
70744;SDS011;59284;31.390;34.904;2022-12-20T14:14:45;18.77;;;8.17;;
70744;SDS011;59284;31.390;34.904;2022-12-20T14:17:14;14.95;;;7.57;;
70744;SDS011;59284;31.390;34.904;2022-12-20T14:23:02;15.80;;;7.55;;
70744;SDS011;59284;31.390;34.904;2022-12-20T14:25:48;15.97;;;8.17;;
70744;SDS011;59284;31.390;34.904;2022-12-20T14:28:37;19.85;;;8.73;;
70744;SDS011;59284;31.390;34.904;2022-12-20T14:31:04;22.80;;;9.13;;
70744;SDS011;59284;31.390;34.904;2022-12-20T14:33:46;17.45;;;8.18;;
70744;SDS011;59284;31.390;34.904;2022-12-20T14:36:31;19.17;;;8.05;;
70744;SDS011;59284;31.390;34.904;2022-12-20T14:39:09;21.23;;;9.43;;
70744;SDS011;59284;31.390;34.904;2022-12-20T14:48:01;21.70;;;9.40;;
70744;SDS011;59284;31.390;34.904;2022-12-20T14:50:35;23.40;;;10.07;;
70744;SDS011;59284;31.390;34.904;2022-12-20T14:53:38;22.27;;;9.53;;
70744;SDS011;59284;31.390;34.904;2022-12-20T14:55:58;20.92;;;8.85;;
70744;SDS011;59284;31.390;34.904;2022-12-20T15:01:00;22.58;;;9.15;;
70744;SDS011;59284;31.390;34.904;2022-12-20T15:03:27;20.55;;;9.27;;
70744;SDS011;59284;31.390;34.904;2022-12-20T15:09:04;21.00;;;9.18;;
70744;SDS011;59284;31.390;34.904;2022-12-20T15:11:31;22.20;;;8.60;;
70744;SDS011;59284;31.390;34.904;2022-12-20T15:13:59;18.15;;;8.40;;
70744;SDS011;59284;31.390;34.904;2022-12-20T15:16:29;23.63;;;9.07;;
70744;SDS011;59284;31.390;34.904;2022-12-20T15:18:57;21.70;;;9.70;;
70744;SDS011;59284;31.390;34.904;2022-12-20T15:21:27;18.40;;;8.50;;
70744;SDS011;59284;31.390;34.904;2022-12-20T15:23:59;25.90;;;10.55;;
70744;SDS011;59284;31.390;34.904;2022-12-20T15:26:26;22.80;;;10.45;;
70744;SDS011;59284;31.390;34.904;2022-12-20T15:28:53;24.77;;;10.98;;
70744;SDS011;59284;31.390;34.904;2022-12-20T15:31:20;21.33;;;10.73;;
70744;SDS011;59284;31.390;34.904;2022-12-20T15:33:50;28.00;;;11.52;;
70744;SDS011;59284;31.390;34.904;2022-12-20T15:36:26;30.73;;;11.57;;
70744;SDS011;59284;31.390;34.904;2022-12-20T15:38:53;27.00;;;11.38;;
70744;SDS011;59284;31.390;34.904;2022-12-20T15:41:28;27.33;;;11.13;;
70744;SDS011;59284;31.390;34.904;2022-12-20T15:44:05;28.60;;;11.83;;
70744;SDS011;59284;31.390;34.904;2022-12-20T15:46:42;29.50;;;11.48;;
70744;SDS011;59284;31.390;34.904;2022-12-20T15:49:15;28.35;;;11.52;;
70744;SDS011;59284;31.390;34.904;2022-12-20T15:51:47;23.65;;;10.55;;
70744;SDS011;59284;31.390;34.904;2022-12-20T15:54:21;24.80;;;11.77;;
70744;SDS011;59284;31.390;34.904;2022-12-20T15:56:56;27.93;;;11.63;;
70744;SDS011;59284;31.390;34.904;2022-12-20T15:59:23;25.63;;;10.98;;
70744;SDS011;59284;31.390;34.904;2022-12-20T16:01:51;31.05;;;10.90;;
70744;SDS011;59284;31.390;34.904;2022-12-20T16:04:21;27.65;;;12.43;;
70744;SDS011;59284;31.390;34.904;2022-12-20T16:06:50;28.53;;;12.03;;
70744;SDS011;59284;31.390;34.904;2022-12-20T16:09:22;29.20;;;12.00;;
70744;SDS011;59284;31.390;34.904;2022-12-20T16:11:50;26.05;;;12.10;;
70744;SDS011;59284;31.390;34.904;2022-12-20T16:14:19;28.25;;;12.68;;
70744;SDS011;59284;31.390;34.904;2022-12-20T16:16:46;29.63;;;13.57;;
70744;SDS011;59284;31.390;34.904;2022-12-20T16:19:14;32.90;;;12.67;;
70744;SDS011;59284;31.390;34.904;2022-12-20T16:21:48;27.25;;;13.32;;
70744;SDS011;59284;31.390;34.904;2022-12-20T16:24:19;33.33;;;12.90;;
70744;SDS011;59284;31.390;34.904;2022-12-20T16:26:47;28.00;;;12.90;;
70744;SDS011;59284;31.390;34.904;2022-12-20T16:29:15;31.58;;;13.25;;
70744;SDS011;59284;31.390;34.904;2022-12-20T16:31:40;35.13;;;13.47;;
70744;SDS011;59284;31.390;34.904;2022-12-20T16:34:14;30.92;;;14.23;;
70744;SDS011;59284;31.390;34.904;2022-12-20T16:36:41;29.98;;;14.00;;
70744;SDS011;59284;31.390;34.904;2022-12-20T16:39:07;25.00;;;12.67;;
70744;SDS011;59284;31.390;34.904;2022-12-20T16:41:34;30.25;;;12.68;;
70744;SDS011;59284;31.390;34.904;2022-12-20T16:44:00;22.08;;;11.15;;
70744;SDS011;59284;31.390;34.904;2022-12-20T16:46:28;36.53;;;11.73;;
70744;SDS011;59284;31.390;34.904;2022-12-20T16:48:56;24.38;;;11.00;;
70744;SDS011;59284;31.390;34.904;2022-12-20T16:51:27;24.30;;;10.77;;
70744;SDS011;59284;31.390;34.904;2022-12-20T16:54:02;23.58;;;10.38;;
70744;SDS011;59284;31.390;34.904;2022-12-20T16:56:30;20.15;;;10.30;;
70744;SDS011;59284;31.390;34.904;2022-12-20T16:58:56;27.10;;;9.60;;
70744;SDS011;59284;31.390;34.904;2022-12-20T17:01:24;20.77;;;9.82;;
70744;SDS011;59284;31.390;34.904;2022-12-20T17:03:54;24.93;;;9.83;;
70744;SDS011;59284;31.390;34.904;2022-12-20T17:06:20;21.15;;;9.10;;
70744;SDS011;59284;31.390;34.904;2022-12-20T17:08:46;20.35;;;10.43;;
70744;SDS011;59284;31.390;34.904;2022-12-20T17:11:20;17.60;;;9.73;;
70744;SDS011;59284;31.390;34.904;2022-12-20T17:13:49;20.67;;;9.77;;
70744;SDS011;59284;31.390;34.904;2022-12-20T17:16:16;23.27;;;9.93;;
70744;SDS011;59284;31.390;34.904;2022-12-20T17:18:46;17.00;;;9.18;;
70744;SDS011;59284;31.390;34.904;2022-12-20T17:23:53;21.60;;;9.63;;
70744;SDS011;59284;31.390;34.904;2022-12-20T17:26:39;25.83;;;10.02;;
70744;SDS011;59284;31.390;34.904;2022-12-20T17:29:04;25.80;;;11.02;;
70744;SDS011;59284;31.390;34.904;2022-12-20T17:31:32;25.50;;;9.67;;
70744;SDS011;59284;31.390;34.904;2022-12-20T17:34:03;23.77;;;11.48;;
70744;SDS011;59284;31.390;34.904;2022-12-20T17:36:39;27.63;;;10.88;;
70744;SDS011;59284;31.390;34.904;2022-12-20T17:39:05;22.33;;;10.53;;
70744;SDS011;59284;31.390;34.904;2022-12-20T17:41:31;23.17;;;10.70;;
70744;SDS011;59284;31.390;34.904;2022-12-20T17:43:58;23.67;;;10.38;;
70744;SDS011;59284;31.390;34.904;2022-12-20T17:46:26;21.70;;;10.80;;
70744;SDS011;59284;31.390;34.904;2022-12-20T17:48:52;23.07;;;10.37;;
70744;SDS011;59284;31.390;34.904;2022-12-20T17:53:54;29.02;;;11.73;;
70744;SDS011;59284;31.390;34.904;2022-12-20T17:56:23;29.20;;;10.73;;
70744;SDS011;59284;31.390;34.904;2022-12-20T17:58:53;26.53;;;10.77;;
70744;SDS011;59284;31.390;34.904;2022-12-20T18:01:23;29.42;;;11.70;;
70744;SDS011;59284;31.390;34.904;2022-12-20T18:03:52;30.02;;;11.98;;
70744;SDS011;59284;31.390;34.904;2022-12-20T18:06:19;26.30;;;10.43;;
70744;SDS011;59284;31.390;34.904;2022-12-20T18:08:50;30.20;;;11.90;;
70744;SDS011;59284;31.390;34.904;2022-12-20T18:11:24;31.70;;;11.13;;
70744;SDS011;59284;31.390;34.904;2022-12-20T18:13:52;40.00;;;12.85;;
70744;SDS011;59284;31.390;34.904;2022-12-20T18:16:21;27.88;;;11.93;;
70744;SDS011;59284;31.390;34.904;2022-12-20T18:18:51;26.35;;;12.02;;
70744;SDS011;59284;31.390;34.904;2022-12-20T18:21:20;25.98;;;11.80;;
70744;SDS011;59284;31.390;34.904;2022-12-20T18:23:47;31.63;;;13.20;;
70744;SDS011;59284;31.390;34.904;2022-12-20T18:26:15;33.03;;;12.70;;
70744;SDS011;59284;31.390;34.904;2022-12-20T18:28:50;36.40;;;13.48;;
70744;SDS011;59284;31.390;34.904;2022-12-20T18:31:19;31.02;;;13.00;;
70744;SDS011;59284;31.390;34.904;2022-12-20T18:33:47;32.78;;;13.27;;
70744;SDS011;59284;31.390;34.904;2022-12-20T18:36:13;33.40;;;12.23;;
70744;SDS011;59284;31.390;34.904;2022-12-20T18:38:42;31.90;;;13.00;;
70744;SDS011;59284;31.390;34.904;2022-12-20T18:41:11;32.75;;;13.60;;
70744;SDS011;59284;31.390;34.904;2022-12-20T18:43:40;38.38;;;14.82;;
70744;SDS011;59284;31.390;34.904;2022-12-20T18:46:09;30.80;;;13.43;;
70744;SDS011;59284;31.390;34.904;2022-12-20T18:48:39;32.43;;;13.83;;
70744;SDS011;59284;31.390;34.904;2022-12-20T18:51:10;29.13;;;13.45;;
70744;SDS011;59284;31.390;34.904;2022-12-20T18:53:43;33.22;;;14.05;;
70744;SDS011;59284;31.390;34.904;2022-12-20T18:56:12;34.40;;;13.90;;
70744;SDS011;59284;31.390;34.904;2022-12-20T18:58:39;40.33;;;14.82;;
70744;SDS011;59284;31.390;34.904;2022-12-20T19:01:15;36.87;;;14.60;;
70744;SDS011;59284;31.390;34.904;2022-12-20T19:03:43;35.92;;;14.43;;
70744;SDS011;59284;31.390;34.904;2022-12-20T19:06:09;37.40;;;14.35;;
70744;SDS011;59284;31.390;34.904;2022-12-20T19:08:36;37.70;;;14.52;;
70744;SDS011;59284;31.390;34.904;2022-12-20T19:11:04;35.70;;;15.45;;
70744;SDS011;59284;31.390;34.904;2022-12-20T19:13:41;34.20;;;15.07;;
70744;SDS011;59284;31.390;34.904;2022-12-20T19:16:09;37.40;;;15.30;;
70744;SDS011;59284;31.390;34.904;2022-12-20T19:18:40;32.15;;;13.88;;
70744;SDS011;59284;31.390;34.904;2022-12-20T19:21:08;43.50;;;15.10;;
70744;SDS011;59284;31.390;34.904;2022-12-20T19:23:38;43.40;;;15.57;;
70744;SDS011;59284;31.390;34.904;2022-12-20T19:26:08;35.57;;;14.33;;
70744;SDS011;59284;31.390;34.904;2022-12-20T19:28:36;39.97;;;14.15;;
70744;SDS011;59284;31.390;34.904;2022-12-20T19:33:43;33.50;;;14.13;;
70744;SDS011;59284;31.390;34.904;2022-12-20T19:36:11;34.70;;;14.45;;
70744;SDS011;59284;31.390;34.904;2022-12-20T19:38:46;37.77;;;14.40;;
70744;SDS011;59284;31.390;34.904;2022-12-20T19:41:15;36.10;;;14.80;;
70744;SDS011;59284;31.390;34.904;2022-12-20T19:43:42;34.50;;;14.73;;
70744;SDS011;59284;31.390;34.904;2022-12-20T19:46:09;39.03;;;14.77;;
70744;SDS011;59284;31.390;34.904;2022-12-20T19:48:35;35.13;;;13.10;;
70744;SDS011;59284;31.390;34.904;2022-12-20T19:53:29;37.80;;;14.50;;
70744;SDS011;59284;31.390;34.904;2022-12-20T19:55:54;35.03;;;14.70;;
70744;SDS011;59284;31.390;34.904;2022-12-20T19:58:20;37.50;;;14.50;;
70744;SDS011;59284;31.390;34.904;2022-12-20T20:00:47;38.33;;;15.23;;
70744;SDS011;59284;31.390;34.904;2022-12-20T20:03:13;34.13;;;14.63;;
70744;SDS011;59284;31.390;34.904;2022-12-20T20:05:39;39.27;;;14.97;;
70744;SDS011;59284;31.390;34.904;2022-12-20T20:08:06;34.15;;;14.68;;
70744;SDS011;59284;31.390;34.904;2022-12-20T20:10:32;37.28;;;15.13;;
70744;SDS011;59284;31.390;34.904;2022-12-20T20:12:57;40.55;;;15.13;;
70744;SDS011;59284;31.390;34.904;2022-12-20T20:15:23;40.63;;;15.43;;
70744;SDS011;59284;31.390;34.904;2022-12-20T20:17:49;33.55;;;15.40;;
70744;SDS011;59284;31.390;34.904;2022-12-20T20:20:15;41.00;;;14.47;;
70744;SDS011;59284;31.390;34.904;2022-12-20T20:22:41;33.95;;;15.05;;
70744;SDS011;59284;31.390;34.904;2022-12-20T20:25:09;43.53;;;15.77;;
70744;SDS011;59284;31.390;34.904;2022-12-20T20:27:35;38.35;;;15.10;;
70744;SDS011;59284;31.390;34.904;2022-12-20T20:30:00;40.80;;;15.82;;
70744;SDS011;59284;31.390;34.904;2022-12-20T20:32:28;40.20;;;15.20;;
70744;SDS011;59284;31.390;34.904;2022-12-20T20:34:53;39.22;;;15.00;;
70744;SDS011;59284;31.390;34.904;2022-12-20T20:37:19;42.60;;;16.33;;
70744;SDS011;59284;31.390;34.904;2022-12-20T20:39:47;36.42;;;15.40;;
70744;SDS011;59284;31.390;34.904;2022-12-20T20:42:13;35.28;;;14.93;;
70744;SDS011;59284;31.390;34.904;2022-12-20T20:44:39;32.77;;;13.97;;
70744;SDS011;59284;31.390;34.904;2022-12-20T20:47:04;41.17;;;15.30;;
70744;SDS011;59284;31.390;34.904;2022-12-20T20:49:30;36.67;;;15.95;;
70744;SDS011;59284;31.390;34.904;2022-12-20T20:51:56;36.27;;;15.33;;
70744;SDS011;59284;31.390;34.904;2022-12-20T20:54:21;38.65;;;15.73;;
70744;SDS011;59284;31.390;34.904;2022-12-20T20:56:47;37.43;;;15.90;;
70744;SDS011;59284;31.390;34.904;2022-12-20T20:59:13;36.97;;;16.27;;
70744;SDS011;59284;31.390;34.904;2022-12-20T21:01:39;39.47;;;15.40;;
70744;SDS011;59284;31.390;34.904;2022-12-20T21:04:04;37.70;;;15.02;;
70744;SDS011;59284;31.390;34.904;2022-12-20T21:06:30;40.17;;;14.98;;
70744;SDS011;59284;31.390;34.904;2022-12-20T21:09:02;36.93;;;15.27;;
70744;SDS011;59284;31.390;34.904;2022-12-20T21:11:29;46.72;;;17.33;;
70744;SDS011;59284;31.390;34.904;2022-12-20T21:13:57;43.35;;;16.20;;
70744;SDS011;59284;31.390;34.904;2022-12-20T21:16:23;40.80;;;16.67;;
70744;SDS011;59284;31.390;34.904;2022-12-20T21:18:52;38.08;;;16.13;;
70744;SDS011;59284;31.390;34.904;2022-12-20T21:21:23;51.57;;;17.27;;
70744;SDS011;59284;31.390;34.904;2022-12-20T21:23:49;40.60;;;16.75;;
70744;SDS011;59284;31.390;34.904;2022-12-20T21:26:16;45.72;;;18.08;;
70744;SDS011;59284;31.390;34.904;2022-12-20T21:28:43;43.95;;;16.65;;
70744;SDS011;59284;31.390;34.904;2022-12-20T21:31:10;48.30;;;17.92;;
70744;SDS011;59284;31.390;34.904;2022-12-20T21:33:37;48.73;;;17.97;;
70744;SDS011;59284;31.390;34.904;2022-12-20T21:36:05;43.63;;;17.20;;
70744;SDS011;59284;31.390;34.904;2022-12-20T21:38:33;43.53;;;17.35;;
70744;SDS011;59284;31.390;34.904;2022-12-20T21:41:03;47.05;;;17.92;;
70744;SDS011;59284;31.390;34.904;2022-12-20T21:43:31;47.28;;;18.15;;
70744;SDS011;59284;31.390;34.904;2022-12-20T21:45:57;52.60;;;19.10;;
70744;SDS011;59284;31.390;34.904;2022-12-20T21:48:23;44.45;;;17.13;;
70744;SDS011;59284;31.390;34.904;2022-12-20T21:50:59;55.25;;;19.70;;
70744;SDS011;59284;31.390;34.904;2022-12-20T21:53:26;47.40;;;18.75;;
70744;SDS011;59284;31.390;34.904;2022-12-20T21:55:54;54.75;;;18.17;;
70744;SDS011;59284;31.390;34.904;2022-12-20T21:58:23;44.07;;;16.90;;
70744;SDS011;59284;31.390;34.904;2022-12-20T22:00:51;48.42;;;17.10;;
70744;SDS011;59284;31.390;34.904;2022-12-20T22:03:18;47.00;;;17.80;;
70744;SDS011;59284;31.390;34.904;2022-12-20T22:05:48;50.50;;;18.20;;
70744;SDS011;59284;31.390;34.904;2022-12-20T22:08:20;51.80;;;18.40;;
70744;SDS011;59284;31.390;34.904;2022-12-20T22:11:00;48.87;;;18.33;;
70744;SDS011;59284;31.390;34.904;2022-12-20T22:13:33;49.33;;;18.50;;
70744;SDS011;59284;31.390;34.904;2022-12-20T22:16:06;49.58;;;17.92;;
70744;SDS011;59284;31.390;34.904;2022-12-20T22:18:33;45.13;;;17.52;;
70744;SDS011;59284;31.390;34.904;2022-12-20T22:21:02;46.00;;;16.40;;
70744;SDS011;59284;31.390;34.904;2022-12-20T22:23:30;45.57;;;17.27;;
70744;SDS011;59284;31.390;34.904;2022-12-20T22:26:00;45.47;;;17.63;;
70744;SDS011;59284;31.390;34.904;2022-12-20T22:28:28;40.88;;;16.77;;
70744;SDS011;59284;31.390;34.904;2022-12-20T22:30:54;40.83;;;16.77;;
70744;SDS011;59284;31.390;34.904;2022-12-20T22:38:42;37.83;;;16.23;;